Time;durP1;ratioP1;P1;durP2;ratioP2;P2;SDS_P1;SDS_P2;PMS_P1;PMS_P2;Temp;Humidity;BMP_temperature;BMP_pressure;BME280_temperature;BME280_humidity;BME280_pressure;Samples;Min_cycle;Max_cycle;Signal;HPM_P1;HPM_P2
2023/10/29 00:01:24;;;;;;;1.38;1.00;;;9.80;79.70;;;;;;5037072;28;20061;-82
2023/10/29 00:03:50;;;;;;;0.90;0.90;;;9.80;79.90;;;;;;5022733;28;20036;-82
2023/10/29 00:06:16;;;;;;;1.17;1.00;;;9.80;80.20;;;;;;5017530;28;20033;-82
2023/10/29 00:08:42;;;;;;;2.97;0.98;;;9.80;80.10;;;;;;5020784;28;20026;-81
2023/10/29 00:11:11;;;;;;;3.20;1.02;;;9.80;80.30;;;;;;5007540;28;20033;-80
2023/10/29 00:13:37;;;;;;;0.80;0.80;;;9.80;80.10;;;;;;5037302;28;20025;-81
2023/10/29 00:16:03;;;;;;;0.80;0.70;;;9.80;80.20;;;;;;5003099;28;20029;-82
2023/10/29 00:18:29;;;;;;;1.05;0.95;;;9.80;80.50;;;;;;5010033;28;20449;-81
2023/10/29 00:20:55;;;;;;;1.10;1.00;;;9.80;79.90;;;;;;5009292;28;20037;-82
2023/10/29 00:23:21;;;;;;;0.90;0.85;;;9.80;80.10;;;;;;4992968;28;20050;-80
2023/10/29 00:25:47;;;;;;;1.20;1.10;;;9.90;79.80;;;;;;5037975;28;20046;-81
2023/10/29 00:28:13;;;;;;;1.05;0.70;;;9.80;79.60;;;;;;5020341;28;20033;-81
2023/10/29 00:30:39;;;;;;;0.90;0.70;;;9.80;79.60;;;;;;5026203;28;20069;-80
2023/10/29 00:33:06;;;;;;;1.00;0.90;;;9.80;79.70;;;;;;5038124;28;20527;-82
2023/10/29 00:35:32;;;;;;;1.13;0.80;;;9.80;79.70;;;;;;5010562;28;20030;-83
2023/10/29 00:37:59;;;;;;;0.63;0.63;;;9.90;79.80;;;;;;5025457;28;20045;-83
2023/10/29 00:40:30;;;;;;;2.42;0.85;;;9.90;79.70;;;;;;5038913;28;20096;-82
2023/10/29 00:42:57;;;;;;;1.95;1.00;;;9.80;79.70;;;;;;5007467;28;20025;-82
2023/10/29 00:45:23;;;;;;;1.10;0.80;;;9.90;80.00;;;;;;5022916;28;20889;-83
2023/10/29 00:47:50;;;;;;;1.45;0.93;;;9.90;80.30;;;;;;5020844;28;20096;-83
2023/10/29 00:50:16;;;;;;;0.80;0.80;;;9.90;80.40;;;;;;5020243;28;20524;-81
2023/10/29 00:52:42;;;;;;;1.83;0.90;;;9.90;80.40;;;;;;5008361;28;20125;-80
2023/10/29 00:55:09;;;;;;;1.83;0.90;;;9.90;80.80;;;;;;5006582;28;20037;-79
2023/10/29 00:57:37;;;;;;;1.23;0.98;;;9.90;80.20;;;;;;5009092;28;20033;-80
2023/10/29 01:00:06;;;;;;;1.10;1.00;;;9.90;80.30;;;;;;5024979;28;20030;-80
2023/10/29 01:02:33;;;;;;;2.55;1.00;;;9.90;80.10;;;;;;5023782;28;20038;-81
2023/10/29 01:05:02;;;;;;;1.48;1.10;;;9.90;80.40;;;;;;5025160;28;20037;-80
2023/10/29 01:07:28;;;;;;;2.47;1.00;;;9.90;80.20;;;;;;5020076;28;20033;-79
2023/10/29 01:09:54;;;;;;;1.85;1.20;;;9.90;80.10;;;;;;5008037;28;20083;-81
2023/10/29 01:12:20;;;;;;;2.05;1.02;;;9.90;80.00;;;;;;4989234;28;20041;-79
2023/10/29 01:14:46;;;;;;;1.48;1.20;;;9.90;80.50;;;;;;5021917;28;20498;-81
2023/10/29 01:17:12;;;;;;;2.33;1.20;;;9.90;80.20;;;;;;5007864;28;20563;-81
2023/10/29 01:19:38;;;;;;;1.77;1.23;;;9.90;80.40;;;;;;5021585;28;20057;-80
2023/10/29 01:22:04;;;;;;;2.63;1.05;;;9.90;80.60;;;;;;5025103;28;20488;-81
2023/10/29 01:24:30;;;;;;;2.00;0.88;;;9.90;80.80;;;;;;5016607;28;20034;-82
2023/10/29 01:26:56;;;;;;;1.80;1.15;;;9.90;80.80;;;;;;5007684;28;20124;-82
2023/10/29 01:29:22;;;;;;;1.15;1.00;;;9.90;80.50;;;;;;5007375;28;20038;-81
2023/10/29 01:31:49;;;;;;;1.02;0.95;;;10.00;80.50;;;;;;5007869;28;20054;-81
2023/10/29 01:34:17;;;;;;;2.58;0.93;;;10.00;80.60;;;;;;5021593;28;20107;-81
2023/10/29 01:36:43;;;;;;;1.60;1.30;;;9.90;80.90;;;;;;5018496;28;20507;-80
2023/10/29 01:39:09;;;;;;;0.88;0.77;;;9.90;80.80;;;;;;5005658;28;20046;-81
2023/10/29 01:41:35;;;;;;;2.55;1.10;;;10.00;81.00;;;;;;5007876;28;20488;-81
2023/10/29 01:44:01;;;;;;;1.50;0.98;;;10.00;80.90;;;;;;4992339;28;20227;-81
2023/10/29 01:46:27;;;;;;;1.25;1.10;;;10.00;81.00;;;;;;4992496;28;20500;-82
2023/10/29 01:48:54;;;;;;;1.58;1.02;;;10.00;81.00;;;;;;5021135;28;20115;-82
2023/10/29 01:51:20;;;;;;;1.38;0.85;;;10.00;80.60;;;;;;4991934;28;20050;-81
2023/10/29 01:53:46;;;;;;;2.78;0.88;;;10.00;80.40;;;;;;5019877;28;20041;-82
2023/10/29 01:56:12;;;;;;;1.13;0.80;;;10.00;80.20;;;;;;5007701;28;20033;-81
2023/10/29 01:58:38;;;;;;;2.25;1.00;;;10.00;80.20;;;;;;5005977;28;20056;-80
2023/10/29 02:01:11;;;;;;;1.27;0.90;;;10.00;80.20;;;;;;5006480;28;20546;-80
2023/10/29 02:03:38;;;;;;;1.38;0.90;;;10.00;80.00;;;;;;4992251;28;20025;-80
2023/10/29 02:06:24;;;;;;;1.08;0.70;;;10.00;79.90;;;;;;5020651;28;20044;-81
2023/10/29 02:08:50;;;;;;;2.15;0.57;;;10.00;80.00;;;;;;5001917;28;20503;-84
2023/10/29 02:11:16;;;;;;;1.02;0.90;;;10.00;80.20;;;;;;5007746;28;21478;-82
2023/10/29 02:13:43;;;;;;;0.98;0.77;;;10.10;80.30;;;;;;5024466;28;20099;-82
2023/10/29 02:16:09;;;;;;;1.60;0.88;;;10.00;80.00;;;;;;4987891;28;20084;-82
2023/10/29 02:18:36;;;;;;;0.80;0.80;;;10.00;79.90;;;;;;4992689;28;20147;-83
2023/10/29 02:21:02;;;;;;;0.80;0.75;;;10.10;79.90;;;;;;5018683;28;20184;-83
2023/10/29 02:23:28;;;;;;;1.20;0.80;;;10.10;79.80;;;;;;5008213;28;20136;-84
2023/10/29 02:25:54;;;;;;;1.08;0.98;;;10.10;79.70;;;;;;5007659;28;20038;-84
2023/10/29 02:28:20;;;;;;;0.65;0.63;;;10.10;79.90;;;;;;5016290;28;20044;-83
2023/10/29 02:30:46;;;;;;;0.70;0.70;;;10.10;79.90;;;;;;5007962;28;20037;-84
2023/10/29 02:33:12;;;;;;;1.45;0.60;;;10.10;80.00;;;;;;5007248;28;20551;-84
2023/10/29 02:35:38;;;;;;;0.73;0.50;;;10.10;80.20;;;;;;5017907;28;20096;-84
2023/10/29 02:38:04;;;;;;;0.50;0.50;;;10.10;80.10;;;;;;5003729;28;20493;-80
2023/10/29 02:40:29;;;;;;;3.15;0.90;;;10.10;80.10;;;;;;5023284;28;20044;-81
2023/10/29 02:42:55;;;;;;;1.33;0.57;;;10.10;79.90;;;;;;5012269;28;20168;-79
2023/10/29 02:45:21;;;;;;;1.25;0.65;;;10.10;79.90;;;;;;5011024;28;20692;-81
2023/10/29 02:47:47;;;;;;;0.90;0.73;;;10.10;79.80;;;;;;5027231;28;20121;-82
2023/10/29 02:50:13;;;;;;;0.93;0.65;;;10.10;79.90;;;;;;5009831;28;20527;-82
2023/10/29 02:52:39;;;;;;;2.22;0.80;;;10.10;79.90;;;;;;5005842;28;20034;-82
2023/10/29 02:55:06;;;;;;;1.00;0.73;;;10.10;79.70;;;;;;5024912;28;20033;-83
2023/10/29 02:57:32;;;;;;;0.70;0.70;;;10.10;79.60;;;;;;5011160;28;20028;-83
2023/10/29 03:00:00;;;;;;;1.88;0.80;;;10.10;79.60;;;;;;5021103;28;21563;-82
2023/10/29 03:02:26;;;;;;;0.98;0.70;;;10.10;79.70;;;;;;5010580;28;20132;-84
2023/10/29 03:04:52;;;;;;;1.88;1.00;;;10.10;79.50;;;;;;4992858;28;20630;-83
2023/10/29 03:07:18;;;;;;;2.03;0.95;;;10.10;79.70;;;;;;5009891;28;20041;-83
2023/10/29 03:09:44;;;;;;;0.98;0.90;;;10.10;79.50;;;;;;5026220;28;20030;-82
2023/10/29 03:12:10;;;;;;;1.58;0.68;;;10.10;79.50;;;;;;5014005;28;20126;-83
2023/10/29 03:14:36;;;;;;;1.13;0.75;;;10.10;79.50;;;;;;5008289;28;20065;-82
2023/10/29 03:17:02;;;;;;;0.80;0.80;;;10.10;79.50;;;;;;5005816;28;20033;-83
2023/10/29 03:19:28;;;;;;;0.70;0.70;;;10.10;79.60;;;;;;5023413;28;20033;-85
2023/10/29 03:21:54;;;;;;;0.70;0.70;;;10.10;79.60;;;;;;5027213;28;20040;-84
2023/10/29 03:24:20;;;;;;;1.85;0.73;;;10.10;79.90;;;;;;4993886;28;20053;-83
2023/10/29 03:26:46;;;;;;;0.80;0.68;;;10.10;79.60;;;;;;4996245;28;20040;-86
2023/10/29 03:29:12;;;;;;;0.50;0.50;;;10.20;79.50;;;;;;5027649;28;20407;-84
2023/10/29 03:31:38;;;;;;;1.30;0.70;;;10.20;79.70;;;;;;5017454;28;20041;-85
2023/10/29 03:34:05;;;;;;;0.98;0.80;;;10.10;79.20;;;;;;5006028;28;20405;-84
2023/10/29 03:36:31;;;;;;;1.10;1.00;;;10.10;79.10;;;;;;5011530;28;20071;-83
2023/10/29 03:38:57;;;;;;;0.88;0.88;;;10.10;79.30;;;;;;5009156;28;20049;-83
2023/10/29 03:41:24;;;;;;;0.88;0.73;;;10.10;79.20;;;;;;5026333;28;20038;-82
2023/10/29 03:43:50;;;;;;;1.13;0.85;;;10.10;79.10;;;;;;5023151;28;20062;-81
2023/10/29 03:46:16;;;;;;;0.70;0.70;;;10.20;79.10;;;;;;5026624;28;20034;-83
2023/10/29 03:48:45;;;;;;;0.80;0.68;;;10.10;79.30;;;;;;5021375;28;20025;-82
2023/10/29 03:51:12;;;;;;;2.03;0.73;;;10.20;79.30;;;;;;5038130;28;20034;-82
2023/10/29 03:53:38;;;;;;;2.15;0.80;;;10.20;79.50;;;;;;5006498;28;20389;-82
2023/10/29 03:56:05;;;;;;;6.28;0.93;;;10.20;79.30;;;;;;5017436;28;20072;-82
2023/10/29 03:58:31;;;;;;;1.00;0.90;;;10.20;79.20;;;;;;5009407;28;20040;-82
2023/10/29 04:01:01;;;;;;;0.73;0.73;;;10.20;79.20;;;;;;5025977;28;20029;-82
2023/10/29 04:03:28;;;;;;;0.88;0.88;;;10.20;79.20;;;;;;5026393;28;20069;-82
2023/10/29 04:05:55;;;;;;;0.77;0.77;;;10.20;79.20;;;;;;5022747;28;20530;-82
2023/10/29 04:08:21;;;;;;;1.58;1.02;;;10.20;79.20;;;;;;5023788;28;20052;-80
2023/10/29 04:10:47;;;;;;;0.77;0.70;;;10.20;79.20;;;;;;5009988;28;20042;-81
2023/10/29 04:13:13;;;;;;;0.70;0.70;;;10.20;78.90;;;;;;5039488;28;20029;-81
2023/10/29 04:15:39;;;;;;;0.80;0.80;;;10.20;78.90;;;;;;5026073;28;20113;-81
2023/10/29 04:18:05;;;;;;;0.80;0.80;;;10.20;78.90;;;;;;5026608;28;20112;-81
2023/10/29 04:20:31;;;;;;;2.33;0.70;;;10.20;78.80;;;;;;5007802;28;20030;-80
2023/10/29 04:22:57;;;;;;;0.80;0.80;;;10.20;79.20;;;;;;5009300;28;20799;-80
2023/10/29 04:25:23;;;;;;;0.95;0.68;;;10.20;79.40;;;;;;5024613;28;20064;-80
2023/10/29 04:27:48;;;;;;;1.73;0.80;;;10.20;79.00;;;;;;5009934;28;20034;-81
2023/10/29 04:30:14;;;;;;;1.48;0.73;;;10.20;78.90;;;;;;5007591;28;20034;-80
2023/10/29 04:32:40;;;;;;;1.00;0.60;;;10.20;78.70;;;;;;5008545;28;20096;-79
2023/10/29 04:35:07;;;;;;;0.98;0.88;;;10.20;78.90;;;;;;5037438;28;20030;-80
2023/10/29 04:37:33;;;;;;;0.80;0.80;;;10.20;78.70;;;;;;5008648;28;20053;-80
2023/10/29 04:39:59;;;;;;;1.00;0.82;;;10.20;78.80;;;;;;5008595;28;20152;-80
2023/10/29 04:42:25;;;;;;;0.93;0.80;;;10.20;78.70;;;;;;5009296;28;20387;-80
2023/10/29 04:44:50;;;;;;;1.38;0.90;;;10.20;78.50;;;;;;5020672;28;20030;-80
2023/10/29 04:47:16;;;;;;;0.63;0.63;;;10.20;78.30;;;;;;5026882;28;20057;-80
2023/10/29 04:49:43;;;;;;;0.90;0.80;;;10.20;78.60;;;;;;5037488;28;20029;-81
2023/10/29 04:52:09;;;;;;;3.22;1.20;;;10.20;78.70;;;;;;5016882;28;20048;-81
2023/10/29 04:54:36;;;;;;;1.10;1.00;;;10.20;78.90;;;;;;5020649;28;20030;-81
2023/10/29 04:57:02;;;;;;;1.10;1.00;;;10.20;78.80;;;;;;5008234;28;20404;-81
2023/10/29 04:59:28;;;;;;;1.00;0.93;;;10.20;78.80;;;;;;5003907;28;20037;-83
2023/10/29 05:01:54;;;;;;;1.45;1.20;;;10.20;78.70;;;;;;5020957;28;20033;-82
2023/10/29 05:04:20;;;;;;;1.25;1.17;;;10.20;78.50;;;;;;5008492;28;20037;-81
2023/10/29 05:06:46;;;;;;;1.20;1.10;;;10.20;78.20;;;;;;5007287;28;20593;-82
2023/10/29 05:09:12;;;;;;;1.30;1.20;;;10.20;78.30;;;;;;5007882;28;20030;-81
2023/10/29 05:11:38;;;;;;;1.13;1.10;;;10.20;78.20;;;;;;5005102;28;20135;-80
2023/10/29 05:14:04;;;;;;;2.72;1.20;;;10.20;78.30;;;;;;5003499;28;20128;-80
2023/10/29 05:16:30;;;;;;;1.40;1.30;;;10.20;78.20;;;;;;5020482;28;20096;-80
2023/10/29 05:18:56;;;;;;;1.23;1.10;;;10.20;78.20;;;;;;4993159;28;20029;-83
2023/10/29 05:21:22;;;;;;;1.20;1.20;;;10.20;78.10;;;;;;5009005;28;20120;-82
2023/10/29 05:23:48;;;;;;;1.63;1.33;;;10.20;78.00;;;;;;5007127;28;20457;-83
2023/10/29 05:26:14;;;;;;;1.20;1.10;;;10.20;78.10;;;;;;5023441;28;20065;-82
2023/10/29 05:28:40;;;;;;;1.42;1.30;;;10.20;78.10;;;;;;5007162;28;20528;-83
2023/10/29 05:31:06;;;;;;;1.50;1.40;;;10.30;78.20;;;;;;4992493;28;20083;-82
2023/10/29 05:33:32;;;;;;;1.42;1.30;;;10.20;78.20;;;;;;5009644;28;20021;-83
2023/10/29 05:35:58;;;;;;;1.25;1.15;;;10.30;78.30;;;;;;5021595;28;20061;-82
2023/10/29 05:38:24;;;;;;;1.50;1.40;;;10.30;78.10;;;;;;5008907;28;20048;-82
2023/10/29 05:40:50;;;;;;;1.60;1.48;;;10.30;78.00;;;;;;5021796;28;20412;-81
2023/10/29 05:43:16;;;;;;;1.50;1.40;;;10.20;78.00;;;;;;5026677;28;20099;-83
2023/10/29 05:45:42;;;;;;;2.33;1.40;;;10.30;78.00;;;;;;5038403;28;20037;-84
2023/10/29 05:48:08;;;;;;;1.60;1.50;;;10.30;78.10;;;;;;5020183;28;20412;-85
2023/10/29 05:50:34;;;;;;;1.88;1.55;;;10.30;78.20;;;;;;5010446;28;20042;-84
2023/10/29 05:53:00;;;;;;;1.60;1.50;;;10.20;78.10;;;;;;5020220;28;20034;-86
2023/10/29 05:55:26;;;;;;;1.45;1.27;;;10.30;78.30;;;;;;4985075;28;20331;-85
2023/10/29 05:57:52;;;;;;;2.35;1.40;;;10.20;78.50;;;;;;5005046;28;20555;-82
2023/10/29 06:00:18;;;;;;;1.38;1.27;;;10.30;78.40;;;;;;5023461;28;20045;-82
2023/10/29 06:02:44;;;;;;;2.58;1.40;;;10.30;78.80;;;;;;5019126;28;20033;-82
2023/10/29 06:05:10;;;;;;;1.67;1.20;;;10.30;79.00;;;;;;5004686;28;20040;-83
2023/10/29 06:07:37;;;;;;;2.50;1.40;;;10.30;78.90;;;;;;4991569;28;20500;-82
2023/10/29 06:10:03;;;;;;;3.08;1.45;;;10.30;78.70;;;;;;5007997;28;20033;-82
2023/10/29 06:12:29;;;;;;;1.60;1.40;;;10.30;79.00;;;;;;5010084;28;20030;-83
2023/10/29 06:14:55;;;;;;;2.05;1.85;;;10.30;79.00;;;;;;5011347;28;20389;-83
2023/10/29 06:17:21;;;;;;;2.10;1.70;;;10.30;78.70;;;;;;5005863;28;20041;-83
2023/10/29 06:19:47;;;;;;;2.05;1.48;;;10.30;78.60;;;;;;5029207;28;20030;-85
2023/10/29 06:22:13;;;;;;;4.43;1.70;;;10.30;78.60;;;;;;5012494;28;20456;-83
2023/10/29 06:24:39;;;;;;;2.00;1.77;;;10.40;78.60;;;;;;5029747;28;20044;-84
2023/10/29 06:27:05;;;;;;;2.03;1.65;;;10.30;78.60;;;;;;5027264;28;20034;-83
2023/10/29 06:29:31;;;;;;;2.53;1.60;;;10.40;79.30;;;;;;5010848;28;20029;-83
2023/10/29 06:31:57;;;;;;;3.70;1.75;;;10.40;78.70;;;;;;5011572;28;20147;-83
2023/10/29 06:34:23;;;;;;;3.78;1.80;;;10.40;78.50;;;;;;5010135;28;20053;-82
2023/10/29 06:36:49;;;;;;;2.15;1.50;;;10.40;78.50;;;;;;5027930;28;20051;-82
2023/10/29 06:39:16;;;;;;;1.70;1.52;;;10.40;78.40;;;;;;5024244;28;20033;-84
2023/10/29 06:41:55;;;;;;;2.67;1.60;;;10.40;78.70;;;;;;5023536;28;20690;-85
2023/10/29 06:44:32;;;;;;;2.80;1.63;;;10.40;78.70;;;;;;5019319;28;20120;-86
2023/10/29 06:47:04;;;;;;;2.83;1.70;;;10.40;78.60;;;;;;5009841;28;20060;-84
2023/10/29 06:50:21;;;;;;;4.85;1.95;;;10.40;78.70;;;;;;5003981;28;20041;-83
2023/10/29 06:53:07;;;;;;;3.00;1.92;;;10.40;78.50;;;;;;5010203;28;20046;-82
2023/10/29 06:57:15;;;;;;;2.22;1.60;;;10.40;78.40;;;;;;4972658;28;20069;-86
2023/10/29 07:04:36;;;;;;;3.03;1.63;;;10.40;78.80;;;;;;4893826;29;20271;-83
2023/10/29 07:15:39;;;;;;;;;;;;;;;;;;;;;
2023/10/29 07:28:53;;;;;;;4.40;2.10;;;10.40;79.30;;;;;;4188515;27;25777771;-82
2023/10/29 07:32:14;;;;;;;5.47;2.55;;;10.40;79.60;;;;;;5006283;28;20095;-83
2023/10/29 07:34:47;;;;;;;3.25;2.40;;;10.40;80.00;;;;;;5045472;28;20044;-82
2023/10/29 07:37:15;;;;;;;2.60;2.38;;;10.40;80.10;;;;;;5014310;28;20029;-81
2023/10/29 07:44:01;;;;;;;2.38;2.10;;;10.50;80.30;;;;;;5004627;28;20073;-80
2023/10/29 07:46:29;;;;;;;3.45;2.15;;;10.50;82.50;;;;;;5028519;28;20080;-82
2023/10/29 07:54:00;;;;;;;4.00;2.70;;;10.60;81.70;;;;;;4975736;28;20596;-80
2023/10/29 07:57:08;;;;;;;3.72;2.67;;;10.60;80.50;;;;;;4971781;28;20038;-78
2023/10/29 08:38:30;;;;;;;7.05;4.13;;;10.60;80.40;;;;;;4746227;30;20063;-90
2023/10/29 08:41:51;;;;;;;6.22;4.07;;;10.60;80.40;;;;;;4756292;29;20040;-80
2023/10/29 08:44:36;;;;;;;;;;;;;;;;;;;;;
2023/10/29 08:48:46;;;;;;;;;;;;;;;;;;;;;
2023/10/29 08:51:54;;;;;;;;;;;10.60;81.30;;;;;;4866451;29;20048;-78
2023/10/29 08:58:39;;;;;;;7.22;4.13;;;10.60;81.50;;;;;;4929673;29;20039;-81
2023/10/29 09:01:12;;;;;;;5.70;4.18;;;10.60;81.90;;;;;;4918953;28;20474;-83
2023/10/29 09:04:56;;;;;;;;;;;;;;;;;;;;;
2023/10/29 09:12:14;;;;;;;6.13;3.95;;;10.60;81.60;;;;;;4866112;29;20040;-87
2023/10/29 09:14:49;;;;;;;4.95;4.00;;;10.70;81.70;;;;;;4875305;29;20044;-78
2023/10/29 09:17:58;;;;;;;5.70;4.20;;;10.60;81.30;;;;;;4880424;29;20037;-82
2023/10/29 09:20:27;;;;;;;5.15;4.30;;;10.70;81.60;;;;;;4893430;29;20041;-84
2023/10/29 09:22:56;;;;;;;4.88;4.13;;;10.70;81.20;;;;;;4880798;29;20055;-86
2023/10/29 09:25:29;;;;;;;5.18;4.13;;;10.70;81.80;;;;;;4889662;29;20040;-85
2023/10/29 09:27:55;;;;;;;5.70;3.90;;;10.70;82.50;;;;;;4900955;29;20058;-81
2023/10/29 09:30:21;;;;;;;7.28;4.03;;;10.70;82.30;;;;;;4930973;28;20193;-83
2023/10/29 09:32:48;;;;;;;4.93;3.83;;;10.70;81.90;;;;;;4974246;28;20042;-84
2023/10/29 09:35:14;;;;;;;5.80;3.70;;;10.70;81.60;;;;;;4983671;28;20460;-83
2023/10/29 09:37:40;;;;;;;7.40;3.97;;;10.70;81.20;;;;;;4970778;28;20073;-84
2023/10/29 09:40:09;;;;;;;5.43;3.72;;;10.70;81.00;;;;;;4991637;28;20084;-84
2023/10/29 09:42:46;;;;;;;4.63;3.50;;;10.70;80.90;;;;;;4990267;28;20034;-79
2023/10/29 09:45:15;;;;;;;4.88;3.67;;;10.70;81.00;;;;;;4988585;28;20093;-79
2023/10/29 09:47:41;;;;;;;4.90;3.50;;;10.70;80.70;;;;;;4993637;28;20076;-83
2023/10/29 09:50:09;;;;;;;6.00;3.95;;;10.70;80.40;;;;;;5011802;28;20038;-78
2023/10/29 09:52:36;;;;;;;9.02;4.38;;;10.70;80.20;;;;;;5014386;28;20112;-80
2023/10/29 09:55:04;;;;;;;4.47;3.67;;;10.70;80.00;;;;;;5024266;28;20057;-79
2023/10/29 09:57:31;;;;;;;5.72;3.78;;;10.70;79.70;;;;;;4981014;28;20030;-80
2023/10/29 09:59:58;;;;;;;5.40;3.97;;;10.70;79.60;;;;;;4999705;28;20048;-79
2023/10/29 10:02:26;;;;;;;5.78;3.95;;;10.70;79.20;;;;;;4988168;28;20026;-80
2023/10/29 10:04:53;;;;;;;6.68;3.92;;;10.70;79.20;;;;;;5013719;28;20033;-79
2023/10/29 10:07:21;;;;;;;6.72;4.35;;;10.70;79.10;;;;;;5007315;28;20038;-79
2023/10/29 10:09:55;;;;;;;7.35;4.57;;;10.70;79.00;;;;;;5017555;28;20030;-79
2023/10/29 10:12:21;;;;;;;6.35;4.10;;;10.80;79.00;;;;;;5038209;28;20034;-79
2023/10/29 10:14:48;;;;;;;5.03;4.18;;;10.70;78.80;;;;;;5024700;28;20121;-80
2023/10/29 10:17:14;;;;;;;5.38;3.92;;;10.80;78.70;;;;;;4998714;28;20040;-79
2023/10/29 10:19:41;;;;;;;6.45;4.30;;;10.70;78.80;;;;;;5023199;28;20037;-81
2023/10/29 10:22:07;;;;;;;5.20;4.43;;;10.80;79.20;;;;;;5015771;28;20037;-79
2023/10/29 10:24:38;;;;;;;4.68;3.92;;;10.70;79.20;;;;;;5023542;28;20041;-80
2023/10/29 10:27:05;;;;;;;5.03;3.88;;;10.80;79.10;;;;;;5018116;28;20052;-79
2023/10/29 10:29:31;;;;;;;4.93;3.70;;;10.70;78.70;;;;;;5047175;28;20033;-80
2023/10/29 10:32:04;;;;;;;4.60;3.58;;;10.70;78.70;;;;;;5062512;28;20032;-80
2023/10/29 10:34:34;;;;;;;4.32;3.13;;;10.80;81.10;;;;;;5022341;28;20475;-82
2023/10/29 10:37:01;;;;;;;3.28;2.65;;;11.00;83.30;;;;;;5052144;28;20037;-82
2023/10/29 10:39:33;;;;;;;4.20;3.10;;;11.20;83.30;;;;;;5057691;28;20104;-83
2023/10/29 10:42:02;;;;;;;5.25;2.67;;;11.30;82.50;;;;;;5057851;28;20057;-83
2023/10/29 10:44:29;;;;;;;3.83;2.80;;;11.60;82.10;;;;;;5051568;28;20075;-83
2023/10/29 10:47:00;;;;;;;4.00;3.05;;;11.70;81.50;;;;;;5017488;28;20044;-82
2023/10/29 10:49:30;;;;;;;4.55;3.03;;;11.90;81.00;;;;;;5044773;28;20036;-84
2023/10/29 10:51:58;;;;;;;4.18;3.00;;;12.00;80.40;;;;;;5047473;28;20048;-80
2023/10/29 10:54:25;;;;;;;4.22;3.03;;;12.20;80.00;;;;;;5047859;28;20033;-82
2023/10/29 10:56:56;;;;;;;5.47;3.55;;;12.30;79.40;;;;;;5035828;28;20037;-81
2023/10/29 10:59:24;;;;;;;4.78;3.20;;;12.40;79.00;;;;;;5019387;28;20519;-84
2023/10/29 11:01:50;;;;;;;4.68;3.40;;;12.50;78.40;;;;;;5003278;28;20033;-83
2023/10/29 11:04:18;;;;;;;5.72;3.00;;;12.60;78.00;;;;;;5047821;28;20073;-83
2023/10/29 11:06:45;;;;;;;7.10;4.20;;;12.70;77.60;;;;;;4998075;28;20041;-81
2023/10/29 11:09:12;;;;;;;6.05;4.07;;;12.60;75.40;;;;;;5038584;28;20124;-83
2023/10/29 11:11:47;;;;;;;6.97;4.22;;;12.60;73.30;;;;;;5016633;28;20030;-81
2023/10/29 11:14:14;;;;;;;6.53;4.60;;;12.50;72.30;;;;;;5017237;28;20163;-82
2023/10/29 11:16:46;;;;;;;5.88;4.20;;;12.40;71.40;;;;;;5031973;28;20029;-82
2023/10/29 11:19:45;;;;;;;6.80;4.15;;;12.30;71.20;;;;;;5021412;28;20060;-81
2023/10/29 11:22:15;;;;;;;5.32;4.05;;;12.20;70.90;;;;;;5033500;28;20052;-81
2023/10/29 11:24:41;;;;;;;5.10;4.60;;;12.20;71.10;;;;;;5052307;28;20028;-83
2023/10/29 11:27:51;;;;;;;4.28;3.63;;;12.10;71.20;;;;;;5012804;28;20050;-81
2023/10/29 11:30:22;;;;;;;4.88;4.30;;;12.10;71.10;;;;;;5026622;28;20033;-79
2023/10/29 11:33:09;;;;;;;4.85;3.90;;;12.00;71.10;;;;;;5031896;28;20500;-80
2023/10/29 11:35:37;;;;;;;7.55;4.65;;;11.90;71.00;;;;;;5026131;28;20029;-80
2023/10/29 11:38:37;;;;;;;5.10;4.15;;;11.80;70.90;;;;;;4994678;28;20032;-80
2023/10/29 11:41:33;;;;;;;4.55;4.00;;;11.80;71.00;;;;;;5023940;28;20791;-81
2023/10/29 11:44:18;;;;;;;4.78;4.15;;;11.70;71.00;;;;;;5044018;28;20045;-80
2023/10/29 11:46:58;;;;;;;7.25;5.35;;;11.70;71.20;;;;;;4996715;28;20087;-81
2023/10/29 11:49:26;;;;;;;7.80;6.22;;;11.60;71.50;;;;;;5023225;28;20412;-84
2023/10/29 11:52:01;;;;;;;8.02;6.53;;;11.60;71.90;;;;;;5047097;28;20025;-82
2023/10/29 11:54:32;;;;;;;8.15;7.10;;;11.50;72.10;;;;;;5022742;28;20033;-83
2023/10/29 11:56:59;;;;;;;10.30;8.05;;;11.50;72.40;;;;;;5014723;28;20055;-80
2023/10/29 11:59:26;;;;;;;9.35;7.38;;;11.50;72.60;;;;;;5023567;28;20032;-80
2023/10/29 12:01:55;;;;;;;11.98;7.68;;;11.40;72.80;;;;;;5051954;28;20037;-82
2023/10/29 12:04:27;;;;;;;9.60;7.82;;;11.40;73.00;;;;;;5031932;28;20033;-81
2023/10/29 12:06:56;;;;;;;9.35;7.18;;;11.30;73.30;;;;;;5050639;28;20487;-82
2023/10/29 12:09:27;;;;;;;9.35;7.35;;;11.30;73.70;;;;;;5046355;28;20044;-81
2023/10/29 12:11:55;;;;;;;10.20;7.97;;;11.20;73.90;;;;;;5050722;28;20033;-82
2023/10/29 12:14:41;;;;;;;8.35;7.40;;;11.20;74.80;;;;;;5020331;28;20091;-80
2023/10/29 12:17:07;;;;;;;8.13;7.15;;;11.20;75.50;;;;;;5030931;28;20577;-82
2023/10/29 12:19:38;;;;;;;9.20;7.10;;;11.20;76.10;;;;;;5017457;28;20095;-81
2023/10/29 12:22:18;;;;;;;9.40;6.70;;;11.20;76.60;;;;;;5022293;28;20051;-81
2023/10/29 12:24:50;;;;;;;8.13;7.00;;;11.20;76.90;;;;;;5039710;28;20040;-82
2023/10/29 12:27:18;;;;;;;9.52;7.05;;;11.20;77.10;;;;;;5051198;28;20041;-82
2023/10/29 12:29:45;;;;;;;8.90;6.60;;;11.20;77.20;;;;;;5024797;28;20533;-84
2023/10/29 12:32:18;;;;;;;9.15;6.90;;;11.20;77.20;;;;;;5019652;28;20074;-83
2023/10/29 12:34:48;;;;;;;7.57;6.13;;;11.20;77.30;;;;;;5071496;28;20028;-82
2023/10/29 12:37:23;;;;;;;7.75;6.45;;;11.10;77.00;;;;;;5040150;28;20024;-84
2023/10/29 12:39:55;;;;;;;8.20;5.88;;;11.10;76.90;;;;;;5051957;28;20120;-83
2023/10/29 12:42:42;;;;;;;7.43;6.13;;;11.10;76.70;;;;;;5034460;28;20130;-82
2023/10/29 12:45:08;;;;;;;6.93;5.50;;;11.20;77.20;;;;;;5050153;28;20685;-82
2023/10/29 12:47:34;;;;;;;7.10;5.38;;;11.10;76.90;;;;;;5068826;28;20604;-80
2023/10/29 12:50:01;;;;;;;7.18;5.47;;;11.10;76.80;;;;;;5035335;28;20036;-81
2023/10/29 12:52:28;;;;;;;6.47;5.55;;;11.10;77.00;;;;;;5031194;28;20049;-81
2023/10/29 12:54:54;;;;;;;9.18;5.47;;;11.10;76.80;;;;;;5053117;28;20039;-82
2023/10/29 12:57:20;;;;;;;6.05;5.03;;;11.10;76.80;;;;;;5024416;28;20037;-81
2023/10/29 12:59:48;;;;;;;6.78;4.78;;;11.10;76.70;;;;;;5036568;28;20049;-84
2023/10/29 13:02:26;;;;;;;5.53;4.60;;;11.00;77.00;;;;;;5034782;28;20081;-84
2023/10/29 13:04:52;;;;;;;5.43;4.70;;;11.10;76.60;;;;;;5061228;28;20033;-83
2023/10/29 13:07:21;;;;;;;6.13;4.68;;;11.00;76.60;;;;;;5036618;28;20044;-82
2023/10/29 13:09:49;;;;;;;6.50;4.53;;;11.00;77.40;;;;;;5036733;28;20061;-83
2023/10/29 13:12:16;;;;;;;5.28;4.75;;;11.00;76.60;;;;;;5065085;28;20115;-82
2023/10/29 13:14:43;;;;;;;5.47;4.57;;;11.00;76.80;;;;;;5047782;28;20155;-83
2023/10/29 13:17:09;;;;;;;5.45;4.50;;;11.00;76.40;;;;;;5021014;28;20064;-83
2023/10/29 13:19:35;;;;;;;5.18;4.65;;;11.00;76.80;;;;;;5046339;28;20519;-83
2023/10/29 13:22:01;;;;;;;5.88;4.18;;;11.00;77.00;;;;;;5050770;28;20036;-83
2023/10/29 13:24:29;;;;;;;5.25;3.97;;;11.00;76.60;;;;;;5051468;28;20029;-81
2023/10/29 13:26:55;;;;;;;5.10;4.10;;;11.00;76.50;;;;;;5025514;28;20548;-83
2023/10/29 13:29:22;;;;;;;4.65;3.88;;;11.00;76.60;;;;;;5046622;28;20047;-82
2023/10/29 13:31:48;;;;;;;4.68;4.00;;;11.00;76.50;;;;;;5049657;28;20033;-79
2023/10/29 13:34:15;;;;;;;4.68;3.70;;;11.00;76.40;;;;;;5063009;28;20546;-79
2023/10/29 13:36:41;;;;;;;5.68;3.92;;;11.00;76.40;;;;;;5068716;28;20044;-78
2023/10/29 13:39:17;;;;;;;4.63;3.85;;;11.00;76.20;;;;;;5063129;28;20500;-89
2023/10/29 13:41:44;;;;;;;4.90;3.58;;;11.00;78.10;;;;;;5029076;28;20568;-86
2023/10/29 13:44:15;;;;;;;5.55;3.53;;;11.20;81.40;;;;;;5047280;28;20056;-89
2023/10/29 13:46:42;;;;;;;6.05;3.47;;;11.40;84.00;;;;;;5044623;28;20048;-89
2023/10/29 13:49:13;;;;;;;5.60;3.60;;;11.60;85.20;;;;;;5053125;28;20101;-90
2023/10/29 13:51:43;;;;;;;4.97;3.30;;;11.80;86.00;;;;;;5022229;28;20337;-89
2023/10/29 13:54:12;;;;;;;4.88;3.78;;;11.90;86.20;;;;;;5050393;28;20032;-87
2023/10/29 13:56:42;;;;;;;6.18;3.50;;;12.10;86.10;;;;;;5030988;28;20075;-84
2023/10/29 13:59:21;;;;;;;6.25;3.58;;;12.30;86.00;;;;;;5022603;28;20115;-88
2023/10/29 14:02:04;;;;;;;4.82;3.33;;;12.40;85.60;;;;;;5018150;28;20159;-81
2023/10/29 14:04:34;;;;;;;7.63;3.90;;;12.60;85.50;;;;;;5051816;28;20412;-81
2023/10/29 14:10:40;;;;;;;6.18;3.95;;;12.50;81.00;;;;;;4988533;28;21708;-80
2023/10/29 14:13:08;;;;;;;4.18;3.58;;;12.40;79.10;;;;;;4990502;28;20034;-77
2023/10/29 14:15:35;;;;;;;7.57;3.20;;;12.30;78.30;;;;;;5008473;28;20173;-78
2023/10/29 14:18:04;;;;;;;6.82;3.83;;;12.30;77.70;;;;;;5012355;28;20068;-78
2023/10/29 14:20:30;;;;;;;4.88;3.55;;;12.30;77.60;;;;;;5031326;28;20037;-78
2023/10/29 14:23:08;;;;;;;5.20;3.35;;;12.20;77.50;;;;;;4996086;28;20033;-78
2023/10/29 14:25:37;;;;;;;5.13;3.53;;;12.10;77.60;;;;;;5011614;28;20120;-83
2023/10/29 14:28:13;;;;;;;6.15;3.67;;;12.10;77.60;;;;;;5009264;28;20417;-79
2023/10/29 14:30:48;;;;;;;3.92;3.15;;;12.10;77.70;;;;;;5014321;28;20033;-80
2023/10/29 14:33:14;;;;;;;6.20;3.53;;;12.00;77.90;;;;;;5007822;28;22073;-79